Time;durP1;ratioP1;P1;durP2;ratioP2;P2;SDS_P1;SDS_P2;PMS_P1;PMS_P2;Temp;Humidity;BMP_temperature;BMP_pressure;BME280_temperature;BME280_humidity;BME280_pressure;Samples;Min_cycle;Max_cycle;Signal;HPM_P1;HPM_P2
2022/04/29 00:00:42;;;;;;;21.65;11.45;;;;;;;8.11;74.76;102925.72;5072546;28;20109;-58
2022/04/29 00:03:08;;;;;;;21.83;11.45;;;;;;;8.06;74.64;102917.34;5072336;28;20021;-59
2022/04/29 00:05:35;;;;;;;22.27;11.60;;;;;;;8.02;74.88;102913.38;5072340;28;20142;-59
2022/04/29 00:08:02;;;;;;;22.42;11.65;;;;;;;7.93;74.66;102907.41;5072484;28;20044;-57
2022/04/29 00:10:28;;;;;;;23.35;11.48;;;;;;;7.90;75.11;102907.00;5072307;28;20021;-57
2022/04/29 00:12:54;;;;;;;23.90;11.73;;;;;;;7.85;75.49;102904.13;5072317;28;20027;-58
2022/04/29 00:15:20;;;;;;;22.50;11.95;;;;;;;7.79;75.50;102895.72;5072108;28;20036;-58
2022/04/29 00:17:46;;;;;;;22.23;11.88;;;;;;;7.78;75.33;102899.56;5072119;28;20031;-58
2022/04/29 00:20:12;;;;;;;21.75;11.25;;;;;;;7.71;76.00;102895.25;5072305;28;20025;-58
2022/04/29 00:22:37;;;;;;;23.27;12.00;;;;;;;7.62;76.58;102889.22;5074255;28;20111;-58
2022/04/29 00:25:04;;;;;;;21.35;11.88;;;;;;;7.63;76.03;102893.66;5076110;28;20108;-58
2022/04/29 00:27:29;;;;;;;23.77;12.45;;;;;;;7.58;76.26;102893.53;5075843;28;20039;-58
2022/04/29 00:29:55;;;;;;;24.75;12.85;;;;;;;7.52;76.34;102897.22;5075629;28;20032;-58
2022/04/29 00:32:22;;;;;;;21.02;11.98;;;;;;;7.47;76.69;102892.41;5075898;28;20023;-58
2022/04/29 00:34:48;;;;;;;23.08;11.75;;;;;;;7.46;76.39;102893.50;5075942;28;20031;-58
2022/04/29 00:37:14;;;;;;;23.10;11.98;;;;;;;7.41;76.93;102894.22;5075633;28;20028;-58
2022/04/29 00:39:39;;;;;;;23.13;12.27;;;;;;;7.42;76.73;102895.03;5075728;28;20027;-58
2022/04/29 00:42:15;;;;;;;25.17;12.80;;;;;;;7.41;76.58;102902.47;5075600;28;20044;-58
2022/04/29 00:44:42;;;;;;;23.35;12.55;;;;;;;7.40;76.47;102894.44;5075504;28;20112;-58
2022/04/29 00:47:10;;;;;;;24.60;12.55;;;;;;;7.40;76.53;102898.03;5075603;28;20082;-58
2022/04/29 00:49:36;;;;;;;22.85;12.30;;;;;;;7.37;77.14;102901.25;5075358;28;20107;-58
2022/04/29 00:52:04;;;;;;;24.60;12.80;;;;;;;7.33;77.07;102889.00;5075469;28;20040;-58
2022/04/29 00:54:35;;;;;;;23.17;12.02;;;;;;;7.30;76.61;102878.47;5075386;28;20119;-58
2022/04/29 00:57:01;;;;;;;22.58;12.18;;;;;;;7.23;77.07;102875.81;5075115;28;20040;-58
2022/04/29 00:59:42;;;;;;;22.95;13.10;;;;;;;7.15;77.70;102876.16;5075430;28;20050;-58
2022/04/29 01:02:09;;;;;;;22.27;12.25;;;;;;;7.22;76.97;102887.06;5075195;28;20037;-58
2022/04/29 01:04:48;;;;;;;23.33;13.20;;;;;;;7.11;77.57;102877.66;5074020;28;20024;-58
2022/04/29 01:07:13;;;;;;;24.00;12.45;;;;;;;7.13;77.33;102879.13;5075117;28;20111;-57
2022/04/29 01:09:38;;;;;;;22.40;11.45;;;;;;;7.11;77.15;102878.53;5075153;28;20052;-58
2022/04/29 01:12:04;;;;;;;21.75;11.93;;;;;;;7.05;77.71;102881.38;5075110;28;20024;-58
2022/04/29 01:14:30;;;;;;;22.63;11.95;;;;;;;7.01;77.97;102881.81;5075071;28;20032;-58
2022/04/29 01:16:58;;;;;;;23.70;12.90;;;;;;;6.95;77.85;102879.16;5074896;28;20024;-58
2022/04/29 01:19:23;;;;;;;22.20;12.52;;;;;;;6.92;78.01;102877.72;5074922;28;20021;-58
2022/04/29 01:21:50;;;;;;;20.80;12.50;;;;;;;6.87;77.92;102872.91;5074820;28;20040;-57
2022/04/29 01:24:15;;;;;;;25.10;13.27;;;;;;;6.87;78.31;102878.41;5073489;28;20383;-58
2022/04/29 01:26:40;;;;;;;22.60;13.43;;;;;;;6.87;78.07;102869.31;5074947;28;20103;-58
2022/04/29 01:29:06;;;;;;;23.83;11.93;;;;;;;6.82;78.10;102867.25;5074645;28;20495;-57
2022/04/29 01:31:32;;;;;;;23.55;12.85;;;;;;;6.79;78.51;102869.63;5074756;28;20032;-58
2022/04/29 01:33:58;;;;;;;22.50;12.32;;;;;;;6.71;78.83;102859.78;5073571;28;20050;-57
2022/04/29 01:36:23;;;;;;;21.58;12.18;;;;;;;6.64;78.94;102854.34;5074377;28;20115;-57
2022/04/29 01:38:49;;;;;;;24.58;12.35;;;;;;;6.62;79.26;102850.16;5074702;28;20066;-58
2022/04/29 01:41:14;;;;;;;23.17;12.05;;;;;;;6.55;79.47;102844.72;5074607;28;20124;-58
2022/04/29 01:43:40;;;;;;;23.75;12.95;;;;;;;6.53;80.06;102838.63;5074810;28;20463;-58
2022/04/29 01:46:05;;;;;;;22.63;12.15;;;;;;;6.49;79.05;102835.50;5074389;28;20082;-58
2022/04/29 01:48:30;;;;;;;24.02;12.50;;;;;;;6.49;79.76;102842.91;5074433;28;20563;-57
2022/04/29 01:50:56;;;;;;;23.08;12.68;;;;;;;6.52;79.72;102842.44;5074200;28;20081;-57
2022/04/29 01:53:22;;;;;;;23.38;12.60;;;;;;;6.50;79.47;102852.84;5074230;28;20555;-57
2022/04/29 01:55:47;;;;;;;23.92;12.75;;;;;;;6.46;79.96;102846.97;5074623;28;20051;-57
2022/04/29 01:58:13;;;;;;;23.45;11.82;;;;;;;6.45;80.04;102847.19;5074182;28;20033;-58
2022/04/29 02:00:39;;;;;;;21.50;11.93;;;;;;;6.41;80.29;102833.06;5074107;28;20111;-58
2022/04/29 02:03:04;;;;;;;26.10;12.75;;;;;;;6.41;79.74;102830.31;5073926;28;20540;-58
2022/04/29 02:05:29;;;;;;;20.98;11.73;;;;;;;6.43;79.49;102832.81;5073931;28;20475;-57
2022/04/29 02:07:57;;;;;;;23.33;12.93;;;;;;;6.41;80.30;102833.06;5073830;28;20036;-58
2022/04/29 02:10:23;;;;;;;23.20;12.30;;;;;;;6.40;79.93;102832.22;5073867;28;20030;-58
2022/04/29 02:12:48;;;;;;;21.70;11.73;;;;;;;6.35;80.03;102834.81;5074055;28;20033;-58
2022/04/29 02:15:14;;;;;;;26.58;13.63;;;;;;;6.34;80.66;102849.59;5073894;28;20028;-59
2022/04/29 02:17:39;;;;;;;25.73;12.80;;;;;;;6.32;80.43;102854.53;5073669;28;20029;-58
2022/04/29 02:20:05;;;;;;;23.98;12.18;;;;;;;6.28;80.79;102838.72;5073736;28;20471;-58
2022/04/29 02:22:30;;;;;;;23.60;13.00;;;;;;;6.27;80.58;102840.59;5073560;28;20483;-58
2022/04/29 02:24:58;;;;;;;25.02;13.13;;;;;;;6.24;80.63;102830.06;5073834;28;20065;-58
2022/04/29 02:27:23;;;;;;;24.48;13.02;;;;;;;6.25;80.77;102831.75;5073596;28;20024;-58
2022/04/29 02:29:48;;;;;;;24.50;13.05;;;;;;;6.22;80.83;102837.72;5073549;28;20382;-59
2022/04/29 02:32:14;;;;;;;23.85;12.82;;;;;;;6.22;80.32;102841.28;5073344;28;20016;-58
2022/04/29 02:34:41;;;;;;;23.98;13.23;;;;;;;6.20;80.99;102832.41;5073631;28;20029;-58
2022/04/29 02:37:07;;;;;;;24.13;12.23;;;;;;;6.20;81.63;102829.69;5073188;28;20414;-58
2022/04/29 02:39:32;;;;;;;26.00;13.68;;;;;;;6.17;81.25;102837.53;5073369;28;20025;-58
2022/04/29 02:41:57;;;;;;;23.63;13.55;;;;;;;6.19;81.38;102832.66;5073290;28;20101;-58
2022/04/29 02:44:23;;;;;;;25.60;13.00;;;;;;;6.18;80.98;102829.09;5073230;28;20033;-58
2022/04/29 02:49:32;;;;;;;26.15;13.27;;;;;;;6.09;81.40;102823.03;5073154;28;20035;-59
2022/04/29 02:51:57;;;;;;;24.60;13.50;;;;;;;6.05;81.60;102827.28;5073097;28;20032;-58
2022/04/29 02:54:23;;;;;;;26.92;13.45;;;;;;;6.04;81.90;102822.03;5073098;28;20051;-58
2022/04/29 02:56:51;;;;;;;25.58;13.68;;;;;;;5.99;81.81;102830.94;5072954;28;20064;-58
2022/04/29 02:59:18;;;;;;;23.92;13.20;;;;;;;5.94;82.27;102823.34;5073443;28;20455;-58
2022/04/29 03:01:43;;;;;;;24.80;13.63;;;;;;;5.90;82.87;102833.09;5073064;28;20028;-58
2022/04/29 03:04:08;;;;;;;24.90;13.43;;;;;;;5.92;83.06;102830.16;5072969;28;20360;-58
2022/04/29 03:06:34;;;;;;;23.85;13.15;;;;;;;5.91;82.82;102829.28;5073199;28;20058;-58
2022/04/29 03:08:59;;;;;;;26.23;13.27;;;;;;;5.91;82.56;102828.47;5072923;28;20040;-58
2022/04/29 03:11:25;;;;;;;24.35;13.45;;;;;;;5.88;82.81;102818.78;5073033;28;20060;-58
2022/04/29 03:13:50;;;;;;;24.65;13.55;;;;;;;5.91;82.48;102817.47;5072903;28;20467;-60
2022/04/29 03:16:15;;;;;;;23.92;13.05;;;;;;;5.91;82.35;102820.22;5072806;28;20075;-59
2022/04/29 03:18:42;;;;;;;24.75;13.95;;;;;;;5.91;82.99;102820.22;5072890;28;20067;-58
2022/04/29 03:21:08;;;;;;;26.08;13.25;;;;;;;5.88;82.69;102805.03;5073041;28;20036;-58
2022/04/29 03:23:33;;;;;;;25.27;14.18;;;;;;;5.88;83.14;102805.03;5072775;28;20028;-58
2022/04/29 03:25:59;;;;;;;24.92;12.85;;;;;;;5.88;82.50;102807.78;5072799;28;20098;-58
2022/04/29 03:28:24;;;;;;;26.77;13.52;;;;;;;5.85;83.37;102796.41;5072819;28;20024;-59
2022/04/29 03:30:50;;;;;;;25.60;13.75;;;;;;;5.82;83.54;102794.94;5072834;28;20483;-59
2022/04/29 03:33:15;;;;;;;28.83;14.05;;;;;;;5.84;83.09;102794.72;5072538;28;20033;-59
2022/04/29 03:35:43;;;;;;;25.60;12.93;;;;;;;5.82;83.06;102788.63;5072706;28;20487;-59
2022/04/29 03:38:08;;;;;;;25.88;13.55;;;;;;;5.80;83.00;102779.75;5072614;28;20108;-59
2022/04/29 03:40:34;;;;;;;25.90;14.02;;;;;;;5.84;82.44;102789.25;5072768;28;20112;-59
2022/04/29 03:42:59;;;;;;;25.92;13.40;;;;;;;5.78;82.91;102786.31;5072817;28;20063;-59
2022/04/29 03:45:26;;;;;;;25.55;13.80;;;;;;;5.75;83.46;102807.91;5072883;28;20065;-58
2022/04/29 03:47:54;;;;;;;24.80;13.70;;;;;;;5.74;82.99;102797.97;5072644;28;20035;-59
2022/04/29 03:50:23;;;;;;;24.67;14.13;;;;;;;5.78;83.42;102811.03;5072777;28;20443;-59
2022/04/29 03:52:53;;;;;;;26.58;14.45;;;;;;;5.77;83.20;102808.53;5072748;28;20071;-59
2022/04/29 03:55:24;;;;;;;23.65;13.30;;;;;;;5.72;83.19;102811.09;5072682;28;20072;-58
2022/04/29 03:57:50;;;;;;;26.58;14.07;;;;;;;5.73;83.61;102813.63;5074909;28;20031;-58
2022/04/29 04:00:16;;;;;;;27.02;14.68;;;;;;;5.75;83.37;102814.25;5076329;28;20025;-58
2022/04/29 04:02:42;;;;;;;28.30;14.52;;;;;;;5.73;83.91;102807.28;5076309;28;20028;-58
2022/04/29 04:05:08;;;;;;;26.10;14.35;;;;;;;5.72;83.48;102809.19;5076378;28;20078;-58
2022/04/29 04:07:34;;;;;;;26.67;14.60;;;;;;;5.74;83.40;102793.34;5076519;28;20105;-58
2022/04/29 04:09:59;;;;;;;26.65;14.32;;;;;;;5.70;83.50;102797.59;5076202;28;20512;-58
2022/04/29 04:12:25;;;;;;;25.85;15.18;;;;;;;5.69;83.49;102801.41;5076142;28;20032;-58
2022/04/29 04:14:51;;;;;;;26.05;14.65;;;;;;;5.66;84.11;102799.13;5076108;28;20360;-58
2022/04/29 04:17:17;;;;;;;26.63;14.93;;;;;;;5.65;84.25;102802.94;5075907;28;20032;-58
2022/04/29 04:19:42;;;;;;;26.50;15.15;;;;;;;5.67;83.53;102805.44;5075746;28;20103;-58
2022/04/29 04:22:07;;;;;;;27.10;14.50;;;;;;;5.70;82.95;102807.75;5075653;28;20107;-58
2022/04/29 04:24:33;;;;;;;25.27;14.38;;;;;;;5.72;83.52;102803.69;5075671;28;20359;-58
2022/04/29 04:26:58;;;;;;;25.77;14.75;;;;;;;5.70;83.63;102797.59;5075566;28;20025;-58
2022/04/29 04:29:23;;;;;;;27.38;15.88;;;;;;;5.69;83.91;102800.56;5075388;28;20044;-58
2022/04/29 04:31:48;;;;;;;25.27;14.23;;;;;;;5.67;83.98;102799.94;5075826;28;20448;-58
2022/04/29 04:36:58;;;;;;;27.27;15.50;;;;;;;5.67;83.21;102789.78;5075914;28;20179;-58
2022/04/29 04:39:24;;;;;;;28.45;16.90;;;;;;;5.65;83.76;102791.94;5075577;28;20441;-58
2022/04/29 04:41:50;;;;;;;27.02;14.70;;;;;;;5.68;83.38;102796.13;5075273;28;20111;-58
2022/04/29 04:44:16;;;;;;;27.50;15.63;;;;;;;5.73;83.38;102805.38;5075324;28;20024;-59
2022/04/29 04:46:41;;;;;;;27.73;15.60;;;;;;;5.73;83.08;102796.28;5075537;28;20119;-58
2022/04/29 04:49:06;;;;;;;26.80;15.43;;;;;;;5.70;83.61;102797.59;5075365;28;20124;-59
2022/04/29 04:51:32;;;;;;;25.85;15.18;;;;;;;5.70;83.63;102797.59;5075321;28;20036;-58
2022/04/29 04:53:58;;;;;;;26.33;16.23;;;;;;;5.68;83.83;102793.41;5075162;28;20131;-59
2022/04/29 04:56:23;;;;;;;25.90;14.93;;;;;;;5.68;84.00;102793.41;5075126;28;20028;-58
2022/04/29 04:58:48;;;;;;;27.30;15.15;;;;;;;5.65;83.95;102786.44;5075305;28;20016;-58
2022/04/29 05:01:14;;;;;;;28.65;16.13;;;;;;;5.66;83.42;102799.13;5075066;28;20416;-58
2022/04/29 05:03:40;;;;;;;27.67;16.02;;;;;;;5.65;83.87;102796.59;5075031;28;20055;-59
2022/04/29 05:06:05;;;;;;;27.38;14.73;;;;;;;5.67;83.49;102794.47;5075307;28;20021;-59
2022/04/29 05:08:30;;;;;;;27.52;15.25;;;;;;;5.69;83.65;102793.16;5073679;28;20111;-58
2022/04/29 05:10:55;;;;;;;26.95;15.13;;;;;;;5.70;83.89;102792.09;5074966;28;20043;-59
2022/04/29 05:13:21;;;;;;;26.65;15.70;;;;;;;5.68;84.27;102790.66;5074755;28;20037;-59
2022/04/29 05:15:46;;;;;;;28.58;15.38;;;;;;;5.68;84.26;102791.47;5074825;28;20112;-58
2022/04/29 05:18:11;;;;;;;28.10;15.40;;;;;;;5.73;84.01;102791.66;5074820;28;20027;-58
2022/04/29 05:20:37;;;;;;;29.80;15.73;;;;;;;5.75;83.93;102794.16;5074761;28;20086;-58
2022/04/29 05:23:02;;;;;;;29.02;15.75;;;;;;;5.75;83.59;102786.78;5074787;28;20422;-58
2022/04/29 05:25:27;;;;;;;27.23;15.82;;;;;;;5.78;83.79;102793.72;5074662;28;20476;-58
2022/04/29 05:27:53;;;;;;;25.70;15.30;;;;;;;5.77;83.78;102792.88;5074426;28;20035;-60
2022/04/29 05:30:18;;;;;;;27.98;16.30;;;;;;;5.77;84.03;102795.63;5074788;28;20021;-59
2022/04/29 05:32:43;;;;;;;27.67;15.85;;;;;;;5.78;83.90;102793.72;5074672;28;20035;-59
2022/04/29 05:35:09;;;;;;;28.17;15.45;;;;;;;5.81;83.35;102798.75;5074588;28;20059;-59
2022/04/29 05:37:36;;;;;;;27.58;15.70;;;;;;;5.84;83.52;102800.22;5074539;28;20028;-59
2022/04/29 05:42:47;;;;;;;29.55;15.77;;;;;;;5.92;83.21;102798.00;5075002;28;20392;-59
2022/04/29 05:45:12;;;;;;;26.60;15.38;;;;;;;5.93;82.91;102799.69;5074329;28;20033;-59
2022/04/29 05:47:38;;;;;;;29.73;15.55;;;;;;;5.95;83.32;102802.25;5074562;28;20112;-59
2022/04/29 05:50:04;;;;;;;27.13;14.95;;;;;;;6.01;83.21;102795.00;5074283;28;20028;-59
2022/04/29 05:52:29;;;;;;;28.23;14.93;;;;;;;6.03;82.70;102799.22;5074111;28;20033;-59
2022/04/29 05:54:55;;;;;;;28.88;15.27;;;;;;;6.05;82.91;102798.97;5073989;28;20033;-59
2022/04/29 05:57:20;;;;;;;28.08;15.55;;;;;;;6.09;82.83;102802.97;5074022;28;20029;-59
2022/04/29 05:59:45;;;;;;;28.90;15.82;;;;;;;6.15;82.08;102801.19;5074194;28;20455;-59
2022/04/29 06:02:11;;;;;;;26.45;15.80;;;;;;;6.20;82.26;102802.19;5074083;28;20036;-59
2022/04/29 06:04:36;;;;;;;28.25;16.00;;;;;;;6.25;82.45;102798.75;5074009;28;20035;-59
2022/04/29 06:07:01;;;;;;;30.05;15.68;;;;;;;6.28;82.10;102801.06;5073995;28;20029;-59
2022/04/29 06:09:26;;;;;;;27.48;15.00;;;;;;;6.35;81.36;102811.97;5073709;28;20048;-59
2022/04/29 06:11:52;;;;;;;27.98;14.88;;;;;;;6.38;81.48;102806.84;5073675;28;20035;-57
2022/04/29 06:14:18;;;;;;;28.65;14.52;;;;;;;6.47;81.48;102812.88;5073775;28;20032;-59
2022/04/29 06:16:46;;;;;;;29.02;15.45;;;;;;;6.55;80.93;102822.72;5073581;28;20024;-59
2022/04/29 06:19:12;;;;;;;28.50;14.75;;;;;;;6.63;80.48;102822.41;5073213;28;20028;-60
2022/04/29 06:21:40;;;;;;;27.88;15.40;;;;;;;6.72;80.69;102823.78;5073455;28;20145;-57
2022/04/29 06:24:06;;;;;;;29.40;15.98;;;;;;;6.80;79.68;102821.81;5073321;28;20056;-57
2022/04/29 06:26:32;;;;;;;27.02;15.10;;;;;;;6.86;80.04;102820.88;5073755;28;20029;-57
2022/04/29 06:28:57;;;;;;;26.80;15.85;;;;;;;6.84;79.31;102832.13;5073145;28;20039;-57
2022/04/29 06:31:22;;;;;;;29.02;15.07;;;;;;;6.87;79.45;102823.38;5073367;28;20020;-58
2022/04/29 06:33:47;;;;;;;29.38;16.85;;;;;;;6.84;79.07;102823.84;5072835;28;20078;-58
2022/04/29 06:36:14;;;;;;;27.52;15.43;;;;;;;6.88;79.61;102821.47;5073197;28;20479;-58
2022/04/29 06:38:39;;;;;;;29.10;15.80;;;;;;;6.93;79.71;102832.63;5073089;28;20046;-58
2022/04/29 06:41:04;;;;;;;30.02;16.25;;;;;;;6.96;79.55;102836.81;5073018;28;20446;-58
2022/04/29 06:43:30;;;;;;;29.25;15.80;;;;;;;7.05;79.34;102838.16;5073252;28;20039;-58
2022/04/29 06:45:56;;;;;;;26.45;15.30;;;;;;;7.10;79.11;102835.56;5073083;28;20074;-58
2022/04/29 06:48:21;;;;;;;26.80;14.77;;;;;;;7.18;78.53;102824.22;5073109;28;20028;-59
2022/04/29 06:50:46;;;;;;;32.20;16.63;;;;;;;7.14;78.56;102825.75;5072890;28;20028;-58
2022/04/29 06:53:12;;;;;;;29.00;15.60;;;;;;;7.24;78.68;102830.69;5073000;28;20043;-58
2022/04/29 06:55:39;;;;;;;32.63;16.23;;;;;;;7.30;77.84;102834.44;5073126;28;20052;-59
2022/04/29 06:58:05;;;;;;;32.42;17.10;;;;;;;7.27;77.75;102833.00;5072973;28;20020;-58
2022/04/29 07:00:31;;;;;;;30.33;16.08;;;;;;;7.32;78.46;102833.13;5072848;28;20028;-59
2022/04/29 07:02:58;;;;;;;30.65;15.90;;;;;;;7.45;77.95;102836.75;5073019;28;20049;-58
2022/04/29 07:05:23;;;;;;;27.83;15.05;;;;;;;7.49;77.26;102837.94;5072797;28;20023;-58
2022/04/29 07:07:49;;;;;;;27.67;15.40;;;;;;;7.54;77.17;102835.34;5072673;28;20086;-58
2022/04/29 07:10:15;;;;;;;29.98;15.57;;;;;;;7.60;76.85;102842.63;5072717;28;20032;-58
2022/04/29 07:12:43;;;;;;;28.95;15.73;;;;;;;7.67;76.14;102838.91;5072665;28;20082;-58
2022/04/29 07:15:13;;;;;;;31.23;16.33;;;;;;;7.58;76.21;102841.19;5072788;28;20025;-58
2022/04/29 07:17:39;;;;;;;28.02;15.25;;;;;;;7.65;76.36;102845.50;5072852;28;20060;-59
2022/04/29 07:20:06;;;;;;;30.83;17.52;;;;;;;7.71;75.99;102840.97;5072708;28;20139;-59
2022/04/29 07:22:32;;;;;;;31.05;16.42;;;;;;;7.81;75.85;102843.16;5072685;28;20384;-58
2022/04/29 07:24:57;;;;;;;29.73;15.63;;;;;;;7.92;75.44;102845.06;5072757;28;20047;-58
2022/04/29 07:27:23;;;;;;;28.67;16.67;;;;;;;7.89;75.45;102844.69;5072561;28;20454;-58
2022/04/29 07:29:48;;;;;;;27.38;16.35;;;;;;;7.97;75.84;102836.91;5072358;28;20503;-58
2022/04/29 07:32:13;;;;;;;26.40;15.85;;;;;;;8.17;75.53;102834.88;5071905;28;20020;-58
2022/04/29 07:42:51;;;;;;;28.27;16.13;;;;;;;8.68;73.38;102830.50;5071647;28;20449;-58
2022/04/29 07:45:17;;;;;;;26.83;15.65;;;;;;;8.79;71.62;102836.22;5072185;28;20028;-58
2022/04/29 07:47:42;;;;;;;28.83;16.45;;;;;;;8.82;72.10;102832.97;5072197;28;20032;-58
2022/04/29 07:50:08;;;;;;;28.38;16.02;;;;;;;8.94;71.91;102828.22;5072353;28;20351;-58
2022/04/29 07:52:34;;;;;;;29.17;16.27;;;;;;;9.00;71.10;102826.41;5072485;28;20028;-58
2022/04/29 07:55:00;;;;;;;29.23;15.65;;;;;;;9.10;71.29;102821.09;5072136;28;20216;-59
2022/04/29 07:57:25;;;;;;;28.35;15.48;;;;;;;9.23;70.99;102822.69;5072441;28;20344;-58
2022/04/29 07:59:50;;;;;;;25.75;15.05;;;;;;;9.40;70.18;102828.25;5072363;28;20043;-58
2022/04/29 08:02:15;;;;;;;26.85;14.70;;;;;;;9.66;70.19;102820.38;5072412;28;20024;-58
2022/04/29 08:04:41;;;;;;;26.17;15.05;;;;;;;9.88;68.96;102825.97;5072120;28;20151;-58
2022/04/29 08:07:06;;;;;;;26.05;14.45;;;;;;;9.88;68.04;102833.44;5072216;28;20037;-58
2022/04/29 08:09:31;;;;;;;31.50;16.08;;;;;;;9.89;68.62;102830.44;5071072;28;20036;-58
2022/04/29 08:11:57;;;;;;;26.65;15.45;;;;;;;9.93;68.43;102830.75;5072086;28;20456;-59
2022/04/29 08:14:22;;;;;;;27.58;14.82;;;;;;;10.10;68.48;102834.34;5071906;28;20475;-58
2022/04/29 08:16:49;;;;;;;26.63;16.40;;;;;;;10.14;67.02;102840.22;5072215;28;20033;-59
2022/04/29 08:19:14;;;;;;;28.85;14.77;;;;;;;10.14;67.86;102837.44;5072327;28;20025;-58
2022/04/29 08:21:41;;;;;;;27.45;16.20;;;;;;;10.19;68.13;102844.97;5070796;28;20024;-58
2022/04/29 08:24:06;;;;;;;26.13;15.38;;;;;;;10.35;67.56;102838.56;5072149;28;20039;-59
2022/04/29 08:26:31;;;;;;;29.42;15.68;;;;;;;10.50;66.71;102835.19;5071903;28;20033;-59
2022/04/29 08:28:58;;;;;;;27.85;16.70;;;;;;;10.60;66.82;102846.41;5071835;28;20044;-59
2022/04/29 08:31:24;;;;;;;29.15;15.48;;;;;;;10.68;66.02;102834.03;5072381;28;20035;-59
2022/04/29 08:33:49;;;;;;;26.48;15.00;;;;;;;10.75;66.09;102829.16;5071995;28;20033;-59
2022/04/29 08:36:15;;;;;;;26.23;15.45;;;;;;;10.72;65.73;102832.44;5072183;28;20455;-58
2022/04/29 08:38:42;;;;;;;29.70;15.85;;;;;;;10.79;65.44;102835.00;5071766;28;20425;-59
2022/04/29 08:41:08;;;;;;;28.02;16.05;;;;;;;10.76;65.76;102836.38;5070471;28;20409;-58
2022/04/29 08:43:34;;;;;;;27.15;15.50;;;;;;;10.75;65.38;102833.84;5073619;28;20032;-59
2022/04/29 08:46:01;;;;;;;29.55;15.50;;;;;;;10.75;65.51;102844.91;5075532;28;20115;-58
2022/04/29 08:48:28;;;;;;;27.80;16.02;;;;;;;10.68;65.72;102847.03;5075568;28;20470;-58
2022/04/29 08:50:57;;;;;;;30.75;15.73;;;;;;;10.66;65.63;102835.38;5075439;28;20115;-58
2022/04/29 08:53:22;;;;;;;27.65;16.45;;;;;;;10.70;66.32;102844.84;5074973;28;20082;-58
2022/04/29 08:58:43;;;;;;;29.10;16.02;;;;;;;10.75;65.59;102845.75;5075139;28;20036;-58
2022/04/29 09:01:16;;;;;;;29.63;16.77;;;;;;;10.86;65.91;102837.56;5075380;28;20032;-58
2022/04/29 09:03:43;;;;;;;30.27;16.10;;;;;;;11.02;65.22;102828.34;5073707;28;20029;-58
2022/04/29 09:06:09;;;;;;;27.42;16.70;;;;;;;11.07;65.28;102838.63;5075627;28;20107;-58
2022/04/29 09:08:42;;;;;;;28.17;16.35;;;;;;;11.14;64.71;102830.13;5074803;28;20103;-58
2022/04/29 09:11:08;;;;;;;28.50;15.25;;;;;;;11.33;65.16;102830.56;5073665;28;20055;-59
2022/04/29 09:13:38;;;;;;;26.95;15.77;;;;;;;11.44;64.33;102831.50;5074824;28;20033;-59
2022/04/29 09:16:12;;;;;;;27.95;14.77;;;;;;;11.54;64.28;102834.34;5074973;28;20059;-58
2022/04/29 09:18:41;;;;;;;27.08;15.15;;;;;;;11.47;63.99;102825.44;5074597;28;20166;-58
2022/04/29 09:21:22;;;;;;;27.65;15.40;;;;;;;11.50;63.89;102820.19;5074635;28;20028;-58
2022/04/29 09:23:55;;;;;;;24.75;14.80;;;;;;;11.63;63.58;102813.38;5074866;28;20032;-59
2022/04/29 09:26:27;;;;;;;28.00;15.23;;;;;;;11.67;64.31;102808.13;5074836;28;20036;-58
2022/04/29 09:28:54;;;;;;;26.15;16.05;;;;;;;11.46;63.29;102816.28;5073292;28;20051;-58
2022/04/29 09:31:20;;;;;;;29.23;14.85;;;;;;;11.38;64.01;102819.56;5074781;28;20097;-58
2022/04/29 09:33:57;;;;;;;29.10;15.55;;;;;;;11.27;64.34;102824.13;5074712;28;20024;-59
2022/04/29 09:36:24;;;;;;;26.52;16.05;;;;;;;11.41;64.17;102820.94;5074570;28;20510;-59
2022/04/29 09:41:39;;;;;;;26.38;15.30;;;;;;;11.72;62.72;102830.34;5074736;28;20142;-59
2022/04/29 09:44:05;;;;;;;26.45;15.23;;;;;;;11.86;62.69;102834.34;5074473;28;20054;-59
2022/04/29 09:46:30;;;;;;;28.35;14.85;;;;;;;11.88;62.31;102833.22;5074307;28;20031;-59
2022/04/29 09:48:59;;;;;;;27.30;15.07;;;;;;;11.92;61.85;102835.22;5074627;28;20044;-59
2022/04/29 09:51:47;;;;;;;28.13;15.57;;;;;;;11.82;62.80;102832.34;5073940;28;20553;-59
2022/04/29 09:54:18;;;;;;;28.02;15.05;;;;;;;11.80;62.50;102840.13;5073318;28;20044;-59
2022/04/29 09:57:02;;;;;;;26.38;16.25;;;;;;;11.85;62.74;102840.97;5074192;28;20029;-59
2022/04/29 09:59:38;;;;;;;25.58;14.57;;;;;;;11.78;62.46;102826.50;5074488;28;20112;-58
2022/04/29 10:02:05;;;;;;;27.35;14.73;;;;;;;11.82;62.83;102835.97;5073979;28;20033;-59
2022/04/29 10:04:34;;;;;;;28.70;15.70;;;;;;;11.81;62.42;102822.38;5073851;28;20025;-58
2022/04/29 10:07:03;;;;;;;26.70;15.07;;;;;;;11.76;62.95;102837.03;5073678;28;20095;-58
2022/04/29 10:09:32;;;;;;;26.23;14.35;;;;;;;11.80;62.97;102827.09;5073838;28;20029;-58
2022/04/29 10:11:59;;;;;;;25.33;15.27;;;;;;;11.82;63.05;102829.59;5073635;28;20029;-57
2022/04/29 10:14:28;;;;;;;25.80;14.43;;;;;;;11.78;63.62;102814.59;5073625;28;20025;-58
2022/04/29 10:22:50;;;;;;;26.23;14.05;;;;;;;11.84;63.03;102822.69;5074065;28;20115;-58
2022/04/29 10:25:18;;;;;;;27.77;13.65;;;;;;;11.93;63.25;102824.97;5073628;28;20028;-59
2022/04/29 10:27:44;;;;;;;25.55;14.52;;;;;;;11.95;62.70;102808.91;5073355;28;20029;-58
2022/04/29 10:30:10;;;;;;;25.42;14.18;;;;;;;11.96;62.66;102808.63;5073501;28;20045;-59
2022/04/29 10:33:07;;;;;;;27.77;14.60;;;;;;;12.15;62.40;102822.06;5073758;28;20432;-59
2022/04/29 10:35:38;;;;;;;26.92;13.82;;;;;;;12.28;61.87;102812.44;5073400;28;20020;-58
2022/04/29 10:38:37;;;;;;;26.45;14.73;;;;;;;12.32;61.75;102814.41;5073124;28;20115;-57
2022/04/29 10:41:15;;;;;;;26.15;14.50;;;;;;;12.37;61.76;102818.31;5073470;28;20544;-58
2022/04/29 10:43:56;;;;;;;27.27;14.10;;;;;;;12.27;61.23;102811.63;5073096;28;20529;-58
2022/04/29 10:46:25;;;;;;;26.73;13.82;;;;;;;12.20;61.69;102812.94;5072925;28;20032;-58
2022/04/29 10:48:52;;;;;;;24.67;13.80;;;;;;;12.16;61.45;102798.78;5073309;28;20029;-58
2022/04/29 10:51:27;;;;;;;26.50;13.75;;;;;;;12.16;62.48;102793.22;5072942;28;20523;-58
2022/04/29 10:53:57;;;;;;;25.33;14.05;;;;;;;12.28;62.64;102782.72;5073281;28;20059;-59
2022/04/29 10:56:32;;;;;;;24.33;13.90;;;;;;;12.50;61.25;102797.56;5073000;28;20051;-59
2022/04/29 10:59:09;;;;;;;26.17;13.77;;;;;;;12.56;61.08;102797.31;5073198;28;20033;-58
2022/04/29 11:01:36;;;;;;;25.30;13.32;;;;;;;12.61;60.44;102796.50;5073027;28;20036;-59
2022/04/29 11:04:05;;;;;;;24.92;13.35;;;;;;;12.56;60.60;102799.22;5073204;28;20025;-59
2022/04/29 11:06:44;;;;;;;24.83;13.25;;;;;;;12.54;60.47;102795.88;5072872;28;20037;-60
2022/04/29 11:09:35;;;;;;;25.85;13.60;;;;;;;12.70;60.47;102794.84;5073121;28;20032;-59
2022/04/29 11:12:02;;;;;;;24.98;13.50;;;;;;;12.55;60.01;102792.84;5073049;28;20037;-59
2022/04/29 11:14:27;;;;;;;25.00;13.00;;;;;;;12.58;60.28;102783.16;5072899;28;20029;-59
2022/04/29 11:17:06;;;;;;;24.77;13.57;;;;;;;12.61;59.37;102782.59;5072654;28;20025;-59
2022/04/29 11:19:36;;;;;;;25.23;13.50;;;;;;;12.75;59.45;102789.31;5073114;28;20115;-58
2022/04/29 11:24:52;;;;;;;23.52;13.85;;;;;;;12.76;58.96;102779.88;5072902;28;20131;-58
2022/04/29 11:27:25;;;;;;;27.73;12.82;;;;;;;12.77;59.29;102784.31;5072591;28;20066;-58
2022/04/29 11:29:52;;;;;;;26.33;13.73;;;;;;;12.85;58.81;102779.31;5072592;28;20116;-58
2022/04/29 11:32:24;;;;;;;24.88;13.13;;;;;;;13.04;58.81;102779.63;5072604;28;20029;-58
2022/04/29 11:34:56;;;;;;;26.02;13.13;;;;;;;13.07;57.48;102771.59;5072659;28;20055;-57
2022/04/29 11:37:27;;;;;;;28.35;13.48;;;;;;;13.21;56.82;102771.88;5072412;28;20406;-59
2022/04/29 11:39:55;;;;;;;26.30;12.95;;;;;;;13.12;55.82;102765.22;5072283;28;20029;-57
2022/04/29 11:42:21;;;;;;;24.45;13.65;;;;;;;13.14;56.21;102771.31;5072481;28;20035;-57
2022/04/29 11:44:49;;;;;;;24.48;12.77;;;;;;;13.23;56.16;102775.19;5072360;28;20111;-57